sensor_id;sensor_type;location;lat;lon;timestamp;P1;durP1;ratioP1;P2;durP2;ratioP2
5121;SDS011;2563;52.242;7.956;2022-10-18T00:02:10;30.80;;;16.40;;
5121;SDS011;2563;52.242;7.956;2022-10-18T00:04:35;36.67;;;17.43;;
5121;SDS011;2563;52.242;7.956;2022-10-18T00:07:01;30.20;;;17.40;;
5121;SDS011;2563;52.242;7.956;2022-10-18T00:09:26;30.57;;;16.50;;
5121;SDS011;2563;52.242;7.956;2022-10-18T00:11:52;27.43;;;16.20;;
5121;SDS011;2563;52.242;7.956;2022-10-18T00:14:17;32.80;;;17.43;;
5121;SDS011;2563;52.242;7.956;2022-10-18T00:16:43;32.50;;;15.80;;
5121;SDS011;2563;52.242;7.956;2022-10-18T00:19:09;33.00;;;17.13;;
5121;SDS011;2563;52.242;7.956;2022-10-18T00:21:34;31.77;;;17.17;;
5121;SDS011;2563;52.242;7.956;2022-10-18T00:24:00;28.87;;;15.47;;
5121;SDS011;2563;52.242;7.956;2022-10-18T00:26:26;29.23;;;16.90;;
5121;SDS011;2563;52.242;7.956;2022-10-18T00:29:03;31.03;;;16.10;;
5121;SDS011;2563;52.242;7.956;2022-10-18T00:31:38;34.47;;;18.40;;
5121;SDS011;2563;52.242;7.956;2022-10-18T00:34:05;32.80;;;17.57;;
5121;SDS011;2563;52.242;7.956;2022-10-18T00:36:33;40.40;;;19.47;;
5121;SDS011;2563;52.242;7.956;2022-10-18T00:38:59;43.57;;;20.70;;
5121;SDS011;2563;52.242;7.956;2022-10-18T00:41:27;47.50;;;20.10;;
5121;SDS011;2563;52.242;7.956;2022-10-18T00:46:44;45.00;;;20.40;;
5121;SDS011;2563;52.242;7.956;2022-10-18T00:49:12;44.97;;;23.33;;
5121;SDS011;2563;52.242;7.956;2022-10-18T00:51:46;62.63;;;22.67;;
5121;SDS011;2563;52.242;7.956;2022-10-18T00:54:14;55.80;;;23.60;;
5121;SDS011;2563;52.242;7.956;2022-10-18T00:56:42;45.30;;;22.10;;
5121;SDS011;2563;52.242;7.956;2022-10-18T00:59:08;44.07;;;23.37;;
5121;SDS011;2563;52.242;7.956;2022-10-18T01:01:35;51.50;;;23.73;;
5121;SDS011;2563;52.242;7.956;2022-10-18T01:04:00;53.80;;;24.80;;
5121;SDS011;2563;52.242;7.956;2022-10-18T01:06:26;65.83;;;26.47;;
5121;SDS011;2563;52.242;7.956;2022-10-18T01:08:57;60.80;;;26.97;;
5121;SDS011;2563;52.242;7.956;2022-10-18T01:14:31;57.33;;;27.63;;
5121;SDS011;2563;52.242;7.956;2022-10-18T01:23:14;63.43;;;28.73;;
5121;SDS011;2563;52.242;7.956;2022-10-18T01:31:58;86.67;;;32.80;;
5121;SDS011;2563;52.242;7.956;2022-10-18T01:34:28;74.53;;;31.50;;
5121;SDS011;2563;52.242;7.956;2022-10-18T01:36:57;85.07;;;32.60;;
5121;SDS011;2563;52.242;7.956;2022-10-18T01:39:28;84.73;;;32.67;;
5121;SDS011;2563;52.242;7.956;2022-10-18T01:41:58;73.77;;;31.50;;
5121;SDS011;2563;52.242;7.956;2022-10-18T01:44:27;79.97;;;32.30;;
5121;SDS011;2563;52.242;7.956;2022-10-18T01:46:56;76.37;;;32.20;;
5121;SDS011;2563;52.242;7.956;2022-10-18T01:49:22;69.87;;;31.53;;
5121;SDS011;2563;52.242;7.956;2022-10-18T01:51:49;64.40;;;29.43;;
5121;SDS011;2563;52.242;7.956;2022-10-18T01:54:16;91.07;;;32.60;;
5121;SDS011;2563;52.242;7.956;2022-10-18T01:56:48;84.03;;;34.30;;
5121;SDS011;2563;52.242;7.956;2022-10-18T02:02:15;97.23;;;38.90;;
5121;SDS011;2563;52.242;7.956;2022-10-18T02:05:07;100.87;;;38.00;;
5121;SDS011;2563;52.242;7.956;2022-10-18T02:13:11;89.83;;;34.20;;
5121;SDS011;2563;52.242;7.956;2022-10-18T02:15:45;84.63;;;29.83;;
5121;SDS011;2563;52.242;7.956;2022-10-18T02:18:33;73.13;;;29.90;;
5121;SDS011;2563;52.242;7.956;2022-10-18T02:21:02;57.03;;;27.03;;
5121;SDS011;2563;52.242;7.956;2022-10-18T02:23:32;51.20;;;25.27;;
5121;SDS011;2563;52.242;7.956;2022-10-18T02:25:57;47.67;;;23.13;;
5121;SDS011;2563;52.242;7.956;2022-10-18T02:28:23;52.10;;;23.03;;
5121;SDS011;2563;52.242;7.956;2022-10-18T02:33:40;44.30;;;20.43;;
5121;SDS011;2563;52.242;7.956;2022-10-18T02:36:25;41.00;;;20.03;;
5121;SDS011;2563;52.242;7.956;2022-10-18T02:38:56;42.50;;;20.93;;
5121;SDS011;2563;52.242;7.956;2022-10-18T02:41:27;45.27;;;20.10;;
5121;SDS011;2563;52.242;7.956;2022-10-18T02:43:55;41.60;;;19.10;;
5121;SDS011;2563;52.242;7.956;2022-10-18T02:46:20;37.83;;;19.80;;
5121;SDS011;2563;52.242;7.956;2022-10-18T02:48:45;41.27;;;19.43;;
5121;SDS011;2563;52.242;7.956;2022-10-18T02:51:11;38.93;;;19.47;;
5121;SDS011;2563;52.242;7.956;2022-10-18T02:53:36;36.60;;;19.83;;
5121;SDS011;2563;52.242;7.956;2022-10-18T02:56:01;43.50;;;19.53;;
5121;SDS011;2563;52.242;7.956;2022-10-18T02:58:27;42.17;;;20.37;;
5121;SDS011;2563;52.242;7.956;2022-10-18T03:00:53;50.97;;;22.00;;
5121;SDS011;2563;52.242;7.956;2022-10-18T03:03:18;39.00;;;20.57;;
5121;SDS011;2563;52.242;7.956;2022-10-18T03:05:43;47.50;;;20.57;;
5121;SDS011;2563;52.242;7.956;2022-10-18T03:08:09;47.27;;;22.03;;
5121;SDS011;2563;52.242;7.956;2022-10-18T03:10:34;41.57;;;20.47;;
5121;SDS011;2563;52.242;7.956;2022-10-18T03:12:59;50.37;;;23.20;;
5121;SDS011;2563;52.242;7.956;2022-10-18T03:15:24;52.63;;;22.93;;
5121;SDS011;2563;52.242;7.956;2022-10-18T03:17:50;47.43;;;22.27;;
5121;SDS011;2563;52.242;7.956;2022-10-18T03:20:15;44.30;;;22.17;;
5121;SDS011;2563;52.242;7.956;2022-10-18T03:22:40;46.77;;;21.40;;
5121;SDS011;2563;52.242;7.956;2022-10-18T03:25:06;43.93;;;21.90;;
5121;SDS011;2563;52.242;7.956;2022-10-18T03:27:31;45.47;;;21.10;;
5121;SDS011;2563;52.242;7.956;2022-10-18T03:29:57;47.83;;;21.47;;
5121;SDS011;2563;52.242;7.956;2022-10-18T03:32:23;48.60;;;21.70;;
5121;SDS011;2563;52.242;7.956;2022-10-18T03:34:48;48.23;;;21.90;;
5121;SDS011;2563;52.242;7.956;2022-10-18T03:37:13;53.50;;;24.17;;
5121;SDS011;2563;52.242;7.956;2022-10-18T03:39:39;42.07;;;19.93;;
5121;SDS011;2563;52.242;7.956;2022-10-18T03:42:04;40.87;;;20.20;;
5121;SDS011;2563;52.242;7.956;2022-10-18T03:44:29;40.37;;;20.50;;
5121;SDS011;2563;52.242;7.956;2022-10-18T03:46:54;43.57;;;20.90;;
5121;SDS011;2563;52.242;7.956;2022-10-18T03:49:20;40.33;;;19.87;;
5121;SDS011;2563;52.242;7.956;2022-10-18T03:51:45;38.93;;;19.53;;
5121;SDS011;2563;52.242;7.956;2022-10-18T03:54:10;40.60;;;19.43;;
5121;SDS011;2563;52.242;7.956;2022-10-18T03:56:36;46.00;;;20.83;;
5121;SDS011;2563;52.242;7.956;2022-10-18T03:59:01;41.37;;;19.23;;
5121;SDS011;2563;52.242;7.956;2022-10-18T04:01:28;33.87;;;19.10;;
5121;SDS011;2563;52.242;7.956;2022-10-18T04:03:54;41.37;;;19.43;;
5121;SDS011;2563;52.242;7.956;2022-10-18T04:06:19;49.10;;;20.03;;
5121;SDS011;2563;52.242;7.956;2022-10-18T04:08:44;37.40;;;18.60;;
5121;SDS011;2563;52.242;7.956;2022-10-18T04:11:09;41.27;;;19.50;;
5121;SDS011;2563;52.242;7.956;2022-10-18T04:13:36;37.23;;;17.23;;
5121;SDS011;2563;52.242;7.956;2022-10-18T04:16:01;34.20;;;17.60;;
5121;SDS011;2563;52.242;7.956;2022-10-18T04:18:27;42.47;;;17.60;;
5121;SDS011;2563;52.242;7.956;2022-10-18T04:20:52;34.27;;;18.30;;
5121;SDS011;2563;52.242;7.956;2022-10-18T04:23:17;45.67;;;18.50;;
5121;SDS011;2563;52.242;7.956;2022-10-18T04:25:43;36.90;;;19.20;;
5121;SDS011;2563;52.242;7.956;2022-10-18T04:28:08;48.83;;;20.60;;
5121;SDS011;2563;52.242;7.956;2022-10-18T04:30:33;36.93;;;19.53;;
5121;SDS011;2563;52.242;7.956;2022-10-18T04:32:59;44.00;;;19.70;;
5121;SDS011;2563;52.242;7.956;2022-10-18T04:35:24;37.57;;;19.97;;
5121;SDS011;2563;52.242;7.956;2022-10-18T04:37:50;41.53;;;20.27;;
5121;SDS011;2563;52.242;7.956;2022-10-18T04:40:15;36.57;;;19.00;;
5121;SDS011;2563;52.242;7.956;2022-10-18T04:42:40;39.57;;;18.60;;
5121;SDS011;2563;52.242;7.956;2022-10-18T04:45:06;41.70;;;20.33;;
5121;SDS011;2563;52.242;7.956;2022-10-18T04:47:31;42.47;;;20.23;;
5121;SDS011;2563;52.242;7.956;2022-10-18T04:49:57;40.37;;;20.67;;
5121;SDS011;2563;52.242;7.956;2022-10-18T04:52:22;38.67;;;20.23;;
5121;SDS011;2563;52.242;7.956;2022-10-18T04:54:47;45.13;;;22.67;;
5121;SDS011;2563;52.242;7.956;2022-10-18T04:57:13;43.37;;;19.97;;
5121;SDS011;2563;52.242;7.956;2022-10-18T04:59:38;46.77;;;22.37;;
5121;SDS011;2563;52.242;7.956;2022-10-18T05:02:03;51.47;;;23.27;;
5121;SDS011;2563;52.242;7.956;2022-10-18T05:04:29;57.90;;;24.50;;
5121;SDS011;2563;52.242;7.956;2022-10-18T05:06:54;62.30;;;26.80;;
5121;SDS011;2563;52.242;7.956;2022-10-18T05:09:19;53.30;;;25.80;;
5121;SDS011;2563;52.242;7.956;2022-10-18T05:11:48;61.20;;;24.87;;
5121;SDS011;2563;52.242;7.956;2022-10-18T05:14:14;55.97;;;26.60;;
5121;SDS011;2563;52.242;7.956;2022-10-18T05:16:39;54.63;;;24.33;;
5121;SDS011;2563;52.242;7.956;2022-10-18T05:19:04;54.63;;;24.30;;
5121;SDS011;2563;52.242;7.956;2022-10-18T05:21:30;58.60;;;25.07;;
5121;SDS011;2563;52.242;7.956;2022-10-18T05:23:55;54.57;;;24.97;;
5121;SDS011;2563;52.242;7.956;2022-10-18T05:26:21;53.93;;;24.10;;
5121;SDS011;2563;52.242;7.956;2022-10-18T05:28:46;53.03;;;22.70;;
5121;SDS011;2563;52.242;7.956;2022-10-18T05:31:13;55.00;;;24.10;;
5121;SDS011;2563;52.242;7.956;2022-10-18T05:33:38;49.20;;;21.90;;
5121;SDS011;2563;52.242;7.956;2022-10-18T05:36:04;47.93;;;22.50;;
5121;SDS011;2563;52.242;7.956;2022-10-18T05:38:29;60.10;;;24.27;;
5121;SDS011;2563;52.242;7.956;2022-10-18T05:40:55;58.60;;;26.40;;
5121;SDS011;2563;52.242;7.956;2022-10-18T05:43:21;56.00;;;23.27;;
5121;SDS011;2563;52.242;7.956;2022-10-18T05:45:49;53.60;;;22.93;;
5121;SDS011;2563;52.242;7.956;2022-10-18T05:48:15;56.57;;;24.30;;
5121;SDS011;2563;52.242;7.956;2022-10-18T05:50:41;53.77;;;23.10;;
5121;SDS011;2563;52.242;7.956;2022-10-18T05:53:07;58.07;;;25.50;;
5121;SDS011;2563;52.242;7.956;2022-10-18T05:55:32;48.57;;;23.80;;
5121;SDS011;2563;52.242;7.956;2022-10-18T05:57:58;55.13;;;24.50;;
5121;SDS011;2563;52.242;7.956;2022-10-18T06:00:23;55.53;;;23.77;;
5121;SDS011;2563;52.242;7.956;2022-10-18T06:02:48;52.10;;;22.70;;
5121;SDS011;2563;52.242;7.956;2022-10-18T06:05:14;51.03;;;23.33;;
5121;SDS011;2563;52.242;7.956;2022-10-18T06:07:39;54.87;;;24.40;;
5121;SDS011;2563;52.242;7.956;2022-10-18T06:10:04;51.73;;;24.97;;
5121;SDS011;2563;52.242;7.956;2022-10-18T06:12:30;54.70;;;24.10;;
5121;SDS011;2563;52.242;7.956;2022-10-18T06:14:55;54.73;;;24.07;;
5121;SDS011;2563;52.242;7.956;2022-10-18T06:17:21;56.33;;;24.20;;
5121;SDS011;2563;52.242;7.956;2022-10-18T06:19:46;55.37;;;22.97;;
5121;SDS011;2563;52.242;7.956;2022-10-18T06:22:11;47.17;;;22.43;;
5121;SDS011;2563;52.242;7.956;2022-10-18T06:24:36;42.10;;;19.80;;
5121;SDS011;2563;52.242;7.956;2022-10-18T06:27:02;44.70;;;22.90;;
5121;SDS011;2563;52.242;7.956;2022-10-18T06:29:36;47.33;;;21.40;;
5121;SDS011;2563;52.242;7.956;2022-10-18T06:32:03;41.50;;;21.13;;
5121;SDS011;2563;52.242;7.956;2022-10-18T06:34:29;38.20;;;18.70;;
5121;SDS011;2563;52.242;7.956;2022-10-18T06:36:54;44.53;;;20.87;;
5121;SDS011;2563;52.242;7.956;2022-10-18T06:39:20;41.03;;;20.03;;
5121;SDS011;2563;52.242;7.956;2022-10-18T06:41:45;42.73;;;19.77;;
5121;SDS011;2563;52.242;7.956;2022-10-18T06:44:10;42.73;;;19.90;;
5121;SDS011;2563;52.242;7.956;2022-10-18T06:46:42;41.40;;;21.17;;
5121;SDS011;2563;52.242;7.956;2022-10-18T06:49:08;45.50;;;20.33;;
5121;SDS011;2563;52.242;7.956;2022-10-18T06:51:34;42.23;;;20.87;;
5121;SDS011;2563;52.242;7.956;2022-10-18T06:53:59;48.23;;;19.50;;
5121;SDS011;2563;52.242;7.956;2022-10-18T06:56:24;39.90;;;18.93;;
5121;SDS011;2563;52.242;7.956;2022-10-18T06:58:50;42.73;;;20.30;;
5121;SDS011;2563;52.242;7.956;2022-10-18T07:01:16;54.37;;;20.00;;
5121;SDS011;2563;52.242;7.956;2022-10-18T07:03:42;41.90;;;19.07;;
5121;SDS011;2563;52.242;7.956;2022-10-18T07:06:09;42.80;;;19.63;;
5121;SDS011;2563;52.242;7.956;2022-10-18T07:08:36;42.43;;;19.83;;
5121;SDS011;2563;52.242;7.956;2022-10-18T07:11:01;45.33;;;19.60;;
5121;SDS011;2563;52.242;7.956;2022-10-18T07:13:27;45.17;;;18.20;;
5121;SDS011;2563;52.242;7.956;2022-10-18T07:18:37;52.03;;;21.17;;
5121;SDS011;2563;52.242;7.956;2022-10-18T07:21:04;49.10;;;20.23;;
5121;SDS011;2563;52.242;7.956;2022-10-18T07:23:32;42.50;;;18.70;;
5121;SDS011;2563;52.242;7.956;2022-10-18T07:25:59;41.83;;;18.13;;
5121;SDS011;2563;52.242;7.956;2022-10-18T07:28:25;44.10;;;19.50;;
5121;SDS011;2563;52.242;7.956;2022-10-18T07:30:51;42.80;;;19.70;;
5121;SDS011;2563;52.242;7.956;2022-10-18T07:33:16;51.17;;;22.03;;
5121;SDS011;2563;52.242;7.956;2022-10-18T07:35:41;44.90;;;18.73;;
5121;SDS011;2563;52.242;7.956;2022-10-18T07:38:07;41.67;;;19.60;;
5121;SDS011;2563;52.242;7.956;2022-10-18T07:40:32;52.27;;;21.13;;
5121;SDS011;2563;52.242;7.956;2022-10-18T07:42:57;46.43;;;18.67;;
5121;SDS011;2563;52.242;7.956;2022-10-18T07:45:22;52.03;;;20.30;;
5121;SDS011;2563;52.242;7.956;2022-10-18T07:47:52;41.47;;;19.13;;
5121;SDS011;2563;52.242;7.956;2022-10-18T07:50:19;56.03;;;21.47;;
5121;SDS011;2563;52.242;7.956;2022-10-18T07:52:44;44.63;;;19.30;;
5121;SDS011;2563;52.242;7.956;2022-10-18T07:55:10;50.53;;;19.90;;
5121;SDS011;2563;52.242;7.956;2022-10-18T07:57:35;47.20;;;19.50;;
5121;SDS011;2563;52.242;7.956;2022-10-18T08:00:00;46.27;;;19.60;;
5121;SDS011;2563;52.242;7.956;2022-10-18T08:02:26;42.33;;;18.23;;
5121;SDS011;2563;52.242;7.956;2022-10-18T08:04:51;36.23;;;17.20;;
5121;SDS011;2563;52.242;7.956;2022-10-18T08:07:16;46.40;;;18.03;;
5121;SDS011;2563;52.242;7.956;2022-10-18T08:09:41;41.90;;;18.73;;
5121;SDS011;2563;52.242;7.956;2022-10-18T08:12:07;44.97;;;18.10;;
5121;SDS011;2563;52.242;7.956;2022-10-18T08:14:32;45.13;;;18.80;;
5121;SDS011;2563;52.242;7.956;2022-10-18T08:16:57;56.07;;;19.93;;
5121;SDS011;2563;52.242;7.956;2022-10-18T08:19:23;45.13;;;17.63;;
5121;SDS011;2563;52.242;7.956;2022-10-18T08:21:48;45.20;;;17.67;;
5121;SDS011;2563;52.242;7.956;2022-10-18T08:24:13;40.43;;;17.10;;
5121;SDS011;2563;52.242;7.956;2022-10-18T08:26:39;42.80;;;16.87;;
5121;SDS011;2563;52.242;7.956;2022-10-18T08:29:04;55.03;;;20.23;;
5121;SDS011;2563;52.242;7.956;2022-10-18T08:31:29;55.97;;;19.60;;
5121;SDS011;2563;52.242;7.956;2022-10-18T08:33:55;46.97;;;19.70;;
5121;SDS011;2563;52.242;7.956;2022-10-18T08:36:24;44.33;;;18.10;;
5121;SDS011;2563;52.242;7.956;2022-10-18T08:38:49;51.73;;;16.50;;
5121;SDS011;2563;52.242;7.956;2022-10-18T08:46:48;45.63;;;17.70;;
5121;SDS011;2563;52.242;7.956;2022-10-18T08:49:25;45.40;;;16.40;;
5121;SDS011;2563;52.242;7.956;2022-10-18T08:51:55;41.43;;;16.30;;
5121;SDS011;2563;52.242;7.956;2022-10-18T08:56:59;38.07;;;16.03;;
5121;SDS011;2563;52.242;7.956;2022-10-18T08:59:37;37.30;;;15.90;;
5121;SDS011;2563;52.242;7.956;2022-10-18T09:21:18;33.00;;;14.10;;
5121;SDS011;2563;52.242;7.956;2022-10-18T09:23:49;31.50;;;12.60;;
5121;SDS011;2563;52.242;7.956;2022-10-18T09:26:25;29.57;;;12.30;;
5121;SDS011;2563;52.242;7.956;2022-10-18T09:31:25;30.10;;;12.70;;
5121;SDS011;2563;52.242;7.956;2022-10-18T09:36:36;25.47;;;11.43;;
5121;SDS011;2563;52.242;7.956;2022-10-18T09:39:12;29.60;;;12.77;;
5121;SDS011;2563;52.242;7.956;2022-10-18T09:44:18;28.60;;;11.57;;
5121;SDS011;2563;52.242;7.956;2022-10-18T09:46:49;25.93;;;11.10;;
5121;SDS011;2563;52.242;7.956;2022-10-18T09:49:27;23.37;;;10.90;;
5121;SDS011;2563;52.242;7.956;2022-10-18T09:51:55;32.17;;;11.73;;
5121;SDS011;2563;52.242;7.956;2022-10-18T09:54:28;27.57;;;12.20;;
5121;SDS011;2563;52.242;7.956;2022-10-18T09:57:06;31.07;;;12.10;;
5121;SDS011;2563;52.242;7.956;2022-10-18T09:59:37;27.90;;;11.53;;
5121;SDS011;2563;52.242;7.956;2022-10-18T10:02:07;28.50;;;11.10;;
5121;SDS011;2563;52.242;7.956;2022-10-18T10:04:36;24.57;;;11.10;;
5121;SDS011;2563;52.242;7.956;2022-10-18T10:07:02;25.87;;;10.63;;
5121;SDS011;2563;52.242;7.956;2022-10-18T10:09:39;22.97;;;9.83;;
5121;SDS011;2563;52.242;7.956;2022-10-18T10:12:22;25.73;;;10.43;;
5121;SDS011;2563;52.242;7.956;2022-10-18T10:14:50;25.93;;;11.80;;
5121;SDS011;2563;52.242;7.956;2022-10-18T10:17:25;30.27;;;11.30;;
5121;SDS011;2563;52.242;7.956;2022-10-18T10:19:58;24.37;;;10.53;;
5121;SDS011;2563;52.242;7.956;2022-10-18T10:22:39;25.50;;;10.13;;
5121;SDS011;2563;52.242;7.956;2022-10-18T10:25:06;26.37;;;9.90;;
5121;SDS011;2563;52.242;7.956;2022-10-18T10:27:43;35.13;;;12.20;;
5121;SDS011;2563;52.242;7.956;2022-10-18T10:30:29;24.13;;;9.50;;
5121;SDS011;2563;52.242;7.956;2022-10-18T10:32:56;23.10;;;10.63;;
5121;SDS011;2563;52.242;7.956;2022-10-18T10:35:23;22.40;;;10.90;;
5121;SDS011;2563;52.242;7.956;2022-10-18T10:37:52;22.13;;;10.80;;
5121;SDS011;2563;52.242;7.956;2022-10-18T10:46:30;24.53;;;9.63;;
5121;SDS011;2563;52.242;7.956;2022-10-18T10:48:48;20.67;;;8.83;;
5121;SDS011;2563;52.242;7.956;2022-10-18T10:51:36;28.00;;;9.70;;
5121;SDS011;2563;52.242;7.956;2022-10-18T10:54:17;22.43;;;8.27;;
5121;SDS011;2563;52.242;7.956;2022-10-18T10:59:58;18.30;;;6.73;;
5121;SDS011;2563;52.242;7.956;2022-10-18T11:04:56;22.53;;;7.23;;
5121;SDS011;2563;52.242;7.956;2022-10-18T11:07:40;15.10;;;6.10;;
5121;SDS011;2563;52.242;7.956;2022-10-18T11:12:48;18.30;;;6.80;;
5121;SDS011;2563;52.242;7.956;2022-10-18T11:15:37;14.27;;;5.37;;
5121;SDS011;2563;52.242;7.956;2022-10-18T11:18:17;13.20;;;5.20;;
5121;SDS011;2563;52.242;7.956;2022-10-18T11:20:50;19.07;;;6.10;;
5121;SDS011;2563;52.242;7.956;2022-10-18T11:23:20;19.40;;;6.43;;
5121;SDS011;2563;52.242;7.956;2022-10-18T11:31:44;11.47;;;3.60;;
5121;SDS011;2563;52.242;7.956;2022-10-18T11:36:59;17.90;;;3.77;;
5121;SDS011;2563;52.242;7.956;2022-10-18T11:45:48;9.03;;;3.40;;
5121;SDS011;2563;52.242;7.956;2022-10-18T11:48:22;7.53;;;3.17;;
5121;SDS011;2563;52.242;7.956;2022-10-18T11:50:56;8.47;;;2.43;;
5121;SDS011;2563;52.242;7.956;2022-10-18T11:53:25;5.87;;;2.20;;
5121;SDS011;2563;52.242;7.956;2022-10-18T11:56:15;5.57;;;2.43;;
5121;SDS011;2563;52.242;7.956;2022-10-18T12:06:34;14.23;;;3.53;;
5121;SDS011;2563;52.242;7.956;2022-10-18T12:09:04;8.17;;;2.77;;
5121;SDS011;2563;52.242;7.956;2022-10-18T12:11:39;7.47;;;2.67;;
5121;SDS011;2563;52.242;7.956;2022-10-18T12:14:44;10.13;;;3.23;;
5121;SDS011;2563;52.242;7.956;2022-10-18T12:17:08;8.03;;;2.80;;
5121;SDS011;2563;52.242;7.956;2022-10-18T12:19:42;7.87;;;2.60;;
5121;SDS011;2563;52.242;7.956;2022-10-18T12:22:15;10.27;;;2.30;;
5121;SDS011;2563;52.242;7.956;2022-10-18T12:24:45;9.27;;;3.00;;
5121;SDS011;2563;52.242;7.956;2022-10-18T12:27:12;9.93;;;2.60;;
5121;SDS011;2563;52.242;7.956;2022-10-18T12:29:59;14.47;;;2.60;;
5121;SDS011;2563;52.242;7.956;2022-10-18T12:32:31;11.97;;;2.23;;
5121;SDS011;2563;52.242;7.956;2022-10-18T12:35:02;10.10;;;3.40;;
5121;SDS011;2563;52.242;7.956;2022-10-18T12:42:56;6.17;;;1.90;;
5121;SDS011;2563;52.242;7.956;2022-10-18T12:48:05;7.33;;;2.00;;
5121;SDS011;2563;52.242;7.956;2022-10-18T12:55:39;7.93;;;1.90;;
5121;SDS011;2563;52.242;7.956;2022-10-18T13:18:50;3.73;;;1.50;;
5121;SDS011;2563;52.242;7.956;2022-10-18T13:21:28;5.20;;;1.60;;
5121;SDS011;2563;52.242;7.956;2022-10-18T13:27:00;5.63;;;1.70;;
5121;SDS011;2563;52.242;7.956;2022-10-18T13:33:07;7.73;;;1.33;;
5121;SDS011;2563;52.242;7.956;2022-10-18T13:38:33;7.20;;;1.70;;
5121;SDS011;2563;52.242;7.956;2022-10-18T13:41:07;3.13;;;1.30;;
5121;SDS011;2563;52.242;7.956;2022-10-18T14:11:10;10.03;;;1.23;;
5121;SDS011;2563;52.242;7.956;2022-10-18T14:13:44;5.07;;;1.70;;
5121;SDS011;2563;52.242;7.956;2022-10-18T14:16:33;10.20;;;1.37;;
5121;SDS011;2563;52.242;7.956;2022-10-18T14:19:27;4.70;;;1.70;;
5121;SDS011;2563;52.242;7.956;2022-10-18T14:21:58;4.63;;;1.83;;
5121;SDS011;2563;52.242;7.956;2022-10-18T14:24:35;5.77;;;1.93;;
5121;SDS011;2563;52.242;7.956;2022-10-18T14:29:46;2.53;;;0.87;;
5121;SDS011;2563;52.242;7.956;2022-10-18T14:34:52;4.70;;;1.03;;
5121;SDS011;2563;52.242;7.956;2022-10-18T14:37:20;2.80;;;1.00;;
5121;SDS011;2563;52.242;7.956;2022-10-18T14:39:49;5.40;;;1.90;;
5121;SDS011;2563;52.242;7.956;2022-10-18T14:42:18;4.10;;;1.23;;
5121;SDS011;2563;52.242;7.956;2022-10-18T14:44:46;4.50;;;1.50;;
5121;SDS011;2563;52.242;7.956;2022-10-18T14:47:13;10.73;;;1.90;;
5121;SDS011;2563;52.242;7.956;2022-10-18T14:49:42;3.50;;;1.50;;
5121;SDS011;2563;52.242;7.956;2022-10-18T14:52:09;9.27;;;1.73;;
5121;SDS011;2563;52.242;7.956;2022-10-18T14:54:37;4.67;;;1.50;;
5121;SDS011;2563;52.242;7.956;2022-10-18T14:57:03;6.37;;;1.77;;
5121;SDS011;2563;52.242;7.956;2022-10-18T14:59:38;9.57;;;2.20;;
5121;SDS011;2563;52.242;7.956;2022-10-18T15:02:12;4.57;;;1.80;;
5121;SDS011;2563;52.242;7.956;2022-10-18T15:04:41;4.93;;;2.20;;
5121;SDS011;2563;52.242;7.956;2022-10-18T15:07:12;9.83;;;2.50;;
5121;SDS011;2563;52.242;7.956;2022-10-18T15:09:40;5.90;;;1.80;;
5121;SDS011;2563;52.242;7.956;2022-10-18T15:12:06;4.17;;;1.60;;
5121;SDS011;2563;52.242;7.956;2022-10-18T15:14:32;7.00;;;2.20;;
5121;SDS011;2563;52.242;7.956;2022-10-18T15:17:00;4.33;;;1.57;;
5121;SDS011;2563;52.242;7.956;2022-10-18T15:19:34;6.03;;;1.60;;
5121;SDS011;2563;52.242;7.956;2022-10-18T15:22:04;3.70;;;1.37;;
5121;SDS011;2563;52.242;7.956;2022-10-18T15:24:33;7.57;;;2.67;;
5121;SDS011;2563;52.242;7.956;2022-10-18T15:29:49;6.20;;;1.97;;
5121;SDS011;2563;52.242;7.956;2022-10-18T15:32:17;18.90;;;2.30;;
5121;SDS011;2563;52.242;7.956;2022-10-18T15:34:47;6.97;;;1.40;;
5121;SDS011;2563;52.242;7.956;2022-10-18T15:42:43;7.90;;;1.87;;
5121;SDS011;2563;52.242;7.956;2022-10-18T15:50:52;8.63;;;1.90;;
5121;SDS011;2563;52.242;7.956;2022-10-18T16:00:43;10.20;;;3.80;;
5121;SDS011;2563;52.242;7.956;2022-10-18T16:03:09;6.30;;;2.80;;
5121;SDS011;2563;52.242;7.956;2022-10-18T16:05:36;9.37;;;3.80;;
5121;SDS011;2563;52.242;7.956;2022-10-18T16:08:02;18.70;;;10.30;;
5121;SDS011;2563;52.242;7.956;2022-10-18T16:10:27;37.57;;;21.90;;
5121;SDS011;2563;52.242;7.956;2022-10-18T16:12:53;21.53;;;14.23;;
5121;SDS011;2563;52.242;7.956;2022-10-18T16:15:18;18.00;;;10.57;;
5121;SDS011;2563;52.242;7.956;2022-10-18T16:17:44;16.63;;;10.37;;
5121;SDS011;2563;52.242;7.956;2022-10-18T16:20:17;9.33;;;4.83;;
5121;SDS011;2563;52.242;7.956;2022-10-18T16:22:45;10.20;;;4.00;;
5121;SDS011;2563;52.242;7.956;2022-10-18T16:25:10;9.53;;;3.20;;
5121;SDS011;2563;52.242;7.956;2022-10-18T16:27:35;8.57;;;2.80;;
5121;SDS011;2563;52.242;7.956;2022-10-18T16:30:01;11.20;;;3.20;;
5121;SDS011;2563;52.242;7.956;2022-10-18T16:32:26;9.30;;;2.50;;
5121;SDS011;2563;52.242;7.956;2022-10-18T16:34:51;9.10;;;3.53;;
5121;SDS011;2563;52.242;7.956;2022-10-18T16:37:16;13.33;;;2.80;;
5121;SDS011;2563;52.242;7.956;2022-10-18T16:39:42;12.83;;;2.80;;
5121;SDS011;2563;52.242;7.956;2022-10-18T16:42:07;13.60;;;2.40;;
5121;SDS011;2563;52.242;7.956;2022-10-18T16:44:32;8.80;;;3.00;;
5121;SDS011;2563;52.242;7.956;2022-10-18T16:46:58;9.90;;;3.30;;
5121;SDS011;2563;52.242;7.956;2022-10-18T16:49:24;12.23;;;3.97;;
5121;SDS011;2563;52.242;7.956;2022-10-18T16:51:51;28.97;;;10.33;;
5121;SDS011;2563;52.242;7.956;2022-10-18T16:54:17;25.23;;;8.70;;
5121;SDS011;2563;52.242;7.956;2022-10-18T16:56:42;35.50;;;12.03;;
5121;SDS011;2563;52.242;7.956;2022-10-18T16:59:09;36.63;;;14.70;;
5121;SDS011;2563;52.242;7.956;2022-10-18T17:01:44;38.87;;;14.00;;
5121;SDS011;2563;52.242;7.956;2022-10-18T17:04:10;27.47;;;11.73;;
5121;SDS011;2563;52.242;7.956;2022-10-18T17:06:35;22.00;;;8.90;;
5121;SDS011;2563;52.242;7.956;2022-10-18T17:09:00;27.37;;;9.10;;
5121;SDS011;2563;52.242;7.956;2022-10-18T17:11:26;25.17;;;10.13;;
5121;SDS011;2563;52.242;7.956;2022-10-18T17:13:52;26.90;;;8.60;;
5121;SDS011;2563;52.242;7.956;2022-10-18T17:16:25;30.13;;;10.17;;
5121;SDS011;2563;52.242;7.956;2022-10-18T17:18:56;27.73;;;9.60;;
5121;SDS011;2563;52.242;7.956;2022-10-18T17:21:23;25.90;;;9.83;;
5121;SDS011;2563;52.242;7.956;2022-10-18T17:23:50;25.43;;;8.73;;
5121;SDS011;2563;52.242;7.956;2022-10-18T17:26:17;21.97;;;9.33;;
5121;SDS011;2563;52.242;7.956;2022-10-18T17:28:43;21.87;;;8.57;;
5121;SDS011;2563;52.242;7.956;2022-10-18T17:31:09;22.67;;;7.50;;
5121;SDS011;2563;52.242;7.956;2022-10-18T17:33:34;25.90;;;9.10;;
5121;SDS011;2563;52.242;7.956;2022-10-18T17:35:59;20.70;;;7.80;;
5121;SDS011;2563;52.242;7.956;2022-10-18T17:38:25;23.13;;;8.50;;
5121;SDS011;2563;52.242;7.956;2022-10-18T17:40:50;24.30;;;9.60;;
5121;SDS011;2563;52.242;7.956;2022-10-18T17:43:18;18.47;;;7.87;;
5121;SDS011;2563;52.242;7.956;2022-10-18T17:45:53;18.20;;;7.47;;
5121;SDS011;2563;52.242;7.956;2022-10-18T17:48:20;20.30;;;7.20;;
5121;SDS011;2563;52.242;7.956;2022-10-18T17:50:45;14.60;;;7.13;;
5121;SDS011;2563;52.242;7.956;2022-10-18T17:53:10;16.40;;;6.57;;
5121;SDS011;2563;52.242;7.956;2022-10-18T17:55:37;15.67;;;5.73;;
5121;SDS011;2563;52.242;7.956;2022-10-18T17:58:03;12.37;;;6.37;;
5121;SDS011;2563;52.242;7.956;2022-10-18T18:00:28;12.13;;;6.30;;
5121;SDS011;2563;52.242;7.956;2022-10-18T18:02:57;11.87;;;6.40;;
5121;SDS011;2563;52.242;7.956;2022-10-18T18:05:23;15.93;;;7.77;;
5121;SDS011;2563;52.242;7.956;2022-10-18T18:07:48;17.20;;;7.73;;
5121;SDS011;2563;52.242;7.956;2022-10-18T18:10:14;20.10;;;7.50;;
5121;SDS011;2563;52.242;7.956;2022-10-18T18:12:39;20.13;;;9.47;;
5121;SDS011;2563;52.242;7.956;2022-10-18T18:15:07;19.33;;;9.50;;
5121;SDS011;2563;52.242;7.956;2022-10-18T18:17:32;33.40;;;12.20;;
5121;SDS011;2563;52.242;7.956;2022-10-18T18:19:57;17.80;;;7.40;;
5121;SDS011;2563;52.242;7.956;2022-10-18T18:22:23;21.40;;;7.03;;
5121;SDS011;2563;52.242;7.956;2022-10-18T18:24:48;20.30;;;8.00;;